createdAt,value
2019-04-09T00:11:56.129Z,38.90
2019-04-09T00:25:03.967Z,39.20
2019-04-09T00:38:10.341Z,39.10
2019-04-09T00:51:35.091Z,39.00
2019-04-09T01:04:57.061Z,39.20
2019-04-09T01:18:20.924Z,39.20
2019-04-09T01:31:42.667Z,38.90
2019-04-09T01:45:05.506Z,39.00
2019-04-09T01:58:28.841Z,38.90
2019-04-09T02:37:59.510Z,39.00
2019-04-09T02:51:07.311Z,39.00
2019-04-09T03:04:15.982Z,39.10
2019-04-09T03:17:21.669Z,39.00
2019-04-09T03:43:31.472Z,39.20
2019-04-09T03:56:38.691Z,39.00
2019-04-09T04:09:45.907Z,39.10
2019-04-09T04:35:57.604Z,39.00
2019-04-09T04:49:04.696Z,39.10
2019-04-09T05:02:12.908Z,39.20
2019-04-09T05:15:19.454Z,39.10
2019-04-09T05:41:29.922Z,39.20
2019-04-09T05:54:36.544Z,39.80
2019-04-09T06:07:43.776Z,39.60
2019-04-09T06:20:52.067Z,39.80
2019-04-09T08:46:27.307Z,41.60
2019-04-09T08:59:48.937Z,39.60
2019-04-09T09:13:14.857Z,39.90
2019-04-09T09:26:36.779Z,39.90
2019-04-09T09:39:58.143Z,39.90
2019-04-09T09:53:25.544Z,39.60
2019-04-09T10:06:45.605Z,39.30
2019-04-09T10:20:05.753Z,41.90
2019-04-09T10:46:32.715Z,42.10
2019-04-09T10:59:37.659Z,32.30
2019-04-09T11:12:44.966Z,33.20
2019-04-09T11:25:52.110Z,37.00
2019-04-09T12:03:19.087Z,40.60
2019-04-09T12:16:41.749Z,40.90
2019-04-09T12:30:04.619Z,41.20
2019-04-09T12:43:27.366Z,41.40
2019-04-09T12:56:50.256Z,41.60
2019-04-09T13:10:13.560Z,41.80
2019-04-09T13:23:36.645Z,41.80
2019-04-09T13:36:58.759Z,42.00
2019-04-09T13:50:21.711Z,42.00
2019-04-09T14:03:44.230Z,42.30
2019-04-09T14:17:07.331Z,41.90
2019-04-09T14:30:30.609Z,42.10
2019-04-09T14:43:52.732Z,41.70
2019-04-09T14:57:16.547Z,41.70
2019-04-09T15:10:38.452Z,42.00
2019-04-09T15:24:01.212Z,43.10
2019-04-09T15:37:24.019Z,42.80
2019-04-09T15:50:46.873Z,43.50
2019-04-09T16:04:09.844Z,45.00
2019-04-09T16:17:33.215Z,39.30
2019-04-09T16:30:55.853Z,41.50
2019-04-09T16:44:18.123Z,41.80
2019-04-09T16:57:41.470Z,41.60
2019-04-09T17:11:03.905Z,41.40
2019-04-09T17:24:26.749Z,41.10
2019-04-09T17:37:50.502Z,41.00
2019-04-09T17:51:12.904Z,41.70
2019-04-09T18:04:40.470Z,42.90
2019-04-09T18:17:57.944Z,34.30
2019-04-09T18:31:25.172Z,29.20
2019-04-09T18:44:43.367Z,27.80
2019-04-09T18:58:06.321Z,28.70
2019-04-09T19:24:31.342Z,29.00
2019-04-09T19:37:38.796Z,27.60
2019-04-09T19:50:46.163Z,31.50
2019-04-09T20:03:54.823Z,32.70
2019-04-09T20:30:19.545Z,34.90
2019-04-09T20:43:26.841Z,34.60
2019-04-09T20:56:35.093Z,35.00
2019-04-09T21:09:41.314Z,35.60
2019-04-09T21:22:48.684Z,35.80
2019-04-09T21:36:14.107Z,36.00
2019-04-09T21:49:35.355Z,36.00
2019-04-09T22:02:58.821Z,36.00
2019-04-09T22:16:22.061Z,36.20
2019-04-09T22:29:43.773Z,36.40
2019-04-09T22:43:06.575Z,36.50
2019-04-09T22:56:29.394Z,36.70
2019-04-09T23:09:53.092Z,36.80
2019-04-09T23:23:15.198Z,37.30
2019-04-09T23:50:13.016Z,37.50
